createdAt,value
2018-04-23T00:01:36.873Z,15.30
2018-04-23T00:04:05.206Z,15.20
2018-04-23T00:06:33.599Z,15.20
2018-04-23T00:09:02.089Z,15.20
2018-04-23T00:11:30.560Z,15.20
2018-04-23T00:13:58.956Z,15.20
2018-04-23T00:16:27.372Z,15.30
2018-04-23T00:18:56.620Z,15.40
2018-04-23T00:21:26.320Z,15.40
2018-04-23T00:23:54.730Z,15.30
2018-04-23T00:26:23.187Z,15.20
2018-04-23T00:28:51.663Z,15.20
2018-04-23T00:31:20.093Z,15.10
2018-04-23T00:33:48.529Z,15.10
2018-04-23T00:36:17.008Z,15.10
2018-04-23T00:38:45.333Z,15.10
2018-04-23T00:41:13.914Z,15.10
2018-04-23T00:43:42.235Z,15.10
2018-04-23T00:48:50.572Z,15.20
2018-04-23T00:51:19.052Z,15.20
2018-04-23T00:53:47.540Z,15.30
2018-04-23T00:56:15.958Z,15.30
2018-04-23T00:58:44.311Z,15.30
2018-04-23T01:01:12.652Z,15.30
2018-04-23T01:03:41.150Z,15.40
2018-04-23T01:06:09.644Z,15.40
2018-04-23T01:08:37.965Z,15.40
2018-04-23T01:11:07.209Z,15.60
2018-04-23T01:13:35.699Z,15.50
2018-04-23T01:16:04.095Z,15.50
2018-04-23T01:18:32.560Z,15.50
2018-04-23T01:21:01.029Z,15.60
2018-04-23T01:23:29.380Z,15.60
2018-04-23T01:25:57.825Z,15.60
2018-04-23T01:28:27.736Z,15.70
2018-04-23T01:30:56.180Z,15.80
2018-04-23T01:33:24.661Z,15.80
2018-04-23T01:35:52.991Z,15.90
2018-04-23T01:38:21.449Z,15.90
2018-04-23T01:40:49.899Z,15.90
2018-04-23T01:43:18.335Z,16.00
2018-04-23T01:45:47.496Z,16.10
2018-04-23T01:48:15.963Z,16.10
2018-04-23T01:50:44.347Z,16.10
2018-04-23T01:53:12.821Z,16.10
2018-04-23T01:55:41.239Z,16.20
2018-04-23T01:58:09.786Z,16.20
2018-04-23T02:00:38.264Z,16.10
2018-04-23T02:03:06.741Z,16.10
2018-04-23T02:05:35.167Z,16.00
2018-04-23T02:08:05.138Z,15.70
2018-04-23T02:10:33.519Z,15.70
2018-04-23T02:13:01.998Z,15.80
2018-04-23T02:15:30.480Z,15.70
2018-04-23T02:17:58.956Z,15.60
2018-04-23T02:20:27.393Z,15.60
2018-04-23T02:22:56.571Z,15.50
2018-04-23T02:25:24.855Z,15.40
2018-04-23T02:27:53.393Z,15.40
2018-04-23T02:30:21.817Z,15.50
2018-04-23T02:32:50.252Z,15.50
2018-04-23T02:35:18.678Z,15.50
2018-04-23T02:37:47.219Z,15.50
2018-04-23T02:40:15.698Z,15.60
2018-04-23T02:42:44.121Z,15.70
2018-04-23T02:45:13.376Z,15.70
2018-04-23T02:47:41.754Z,15.70
2018-04-23T02:50:10.241Z,15.70
2018-04-23T02:52:38.779Z,15.80
2018-04-23T02:55:08.021Z,15.80
2018-04-23T02:57:36.439Z,15.80
2018-04-23T03:00:05.694Z,15.80
2018-04-23T03:02:34.180Z,15.80
2018-04-23T03:05:02.620Z,15.80
2018-04-23T03:07:31.787Z,15.80
2018-04-23T03:10:00.336Z,15.80
2018-04-23T03:12:28.714Z,15.80
2018-04-23T03:14:57.199Z,15.80
2018-04-23T03:17:25.572Z,15.70
2018-04-23T03:19:53.950Z,15.70
2018-04-23T03:22:22.949Z,15.70
2018-04-23T03:24:51.470Z,15.60
2018-04-23T03:27:19.789Z,15.50
2018-04-23T03:29:48.286Z,15.50
2018-04-23T03:32:16.762Z,15.50
2018-04-23T03:34:45.139Z,15.50
2018-04-23T03:37:13.686Z,15.50
2018-04-23T03:39:42.026Z,15.50
2018-04-23T03:42:10.415Z,15.50
2018-04-23T03:44:38.861Z,15.50
2018-04-23T03:47:07.543Z,15.40
2018-04-23T03:49:35.859Z,15.40
2018-04-23T03:52:04.438Z,15.40
2018-04-23T03:54:32.946Z,15.30
2018-04-23T03:57:02.189Z,15.30
2018-04-23T03:59:30.562Z,15.30
2018-04-23T04:01:58.988Z,15.30
2018-04-23T04:04:30.295Z,15.30
2018-04-23T04:06:58.770Z,15.30
2018-04-23T04:09:27.111Z,15.20
2018-04-23T04:11:56.450Z,15.10
2018-04-23T04:14:37.017Z,15.00
2018-04-23T04:17:05.497Z,15.00
2018-04-23T04:19:33.853Z,14.90
2018-04-23T04:22:02.352Z,14.90
2018-04-23T04:24:30.839Z,14.90
2018-04-23T04:26:59.280Z,14.80
2018-04-23T04:29:28.480Z,14.90
2018-04-23T04:31:57.721Z,14.90
2018-04-23T04:34:26.159Z,14.90
2018-04-23T04:36:54.569Z,15.00
2018-04-23T04:39:22.955Z,15.10
2018-04-23T04:41:51.371Z,15.30
2018-04-23T04:44:21.358Z,15.70
2018-04-23T04:46:49.827Z,15.70
2018-04-23T04:49:18.306Z,15.90
2018-04-23T04:51:46.858Z,16.10
2018-04-23T04:54:16.094Z,16.40
2018-04-23T04:56:44.573Z,16.40
2018-04-23T04:59:12.952Z,16.50
2018-04-23T05:01:41.463Z,16.60
2018-04-23T05:04:09.860Z,16.70
2018-04-23T05:06:38.291Z,16.90
2018-04-23T05:09:06.726Z,16.90
2018-04-23T05:11:35.079Z,17.10
2018-04-23T05:14:03.464Z,17.20
2018-04-23T05:16:32.316Z,17.30
2018-04-23T05:19:00.662Z,17.50
2018-04-23T05:21:29.997Z,17.40
2018-04-23T05:23:58.321Z,17.40
2018-04-23T05:26:26.812Z,17.40
2018-04-23T05:28:55.368Z,17.40
2018-04-23T05:31:23.813Z,17.20
2018-04-23T05:33:52.192Z,17.10
2018-04-23T05:36:20.512Z,17.10
2018-04-23T05:38:48.878Z,17.20
2018-04-23T05:41:17.213Z,17.10
2018-04-23T05:43:45.641Z,17.00
2018-04-23T05:46:15.683Z,17.10
2018-04-23T05:48:44.106Z,17.00
2018-04-23T05:51:12.460Z,17.00
2018-04-23T05:53:40.970Z,16.80
2018-04-23T05:56:09.540Z,16.70
2018-04-23T05:58:37.929Z,16.60
2018-04-23T06:01:06.459Z,16.60
2018-04-23T06:03:35.619Z,16.70
2018-04-23T06:06:03.979Z,16.60
2018-04-23T06:08:32.466Z,16.70
2018-04-23T06:11:00.767Z,16.90
2018-04-23T06:13:29.164Z,16.90
2018-04-23T06:15:57.592Z,16.90
2018-04-23T06:18:30.230Z,17.00
2018-04-23T06:21:07.060Z,17.10
2018-04-23T06:23:35.389Z,17.20
2018-04-23T06:26:04.664Z,17.70
2018-04-23T06:28:33.161Z,17.70
2018-04-23T06:31:02.390Z,18.30
2018-04-23T06:33:32.352Z,18.70
2018-04-23T06:36:00.905Z,18.70
2018-04-23T06:38:29.248Z,19.10
2018-04-23T06:40:57.764Z,19.60
2018-04-23T06:43:26.249Z,19.90
2018-04-23T06:45:54.625Z,20.50
2018-04-23T06:48:23.004Z,20.90
2018-04-23T06:50:51.591Z,21.30
2018-04-23T06:53:20.082Z,21.60
2018-04-23T06:55:48.543Z,22.10
2018-04-23T06:58:17.030Z,22.30
2018-04-23T07:00:45.513Z,22.60
2018-04-23T07:03:14.246Z,22.60
2018-04-23T07:05:42.778Z,22.60
2018-04-23T07:08:12.492Z,22.30
2018-04-23T07:10:40.826Z,22.30
2018-04-23T07:13:10.016Z,22.50
2018-04-23T07:15:40.443Z,22.50
2018-04-23T07:18:09.693Z,22.80
2018-04-23T07:20:38.168Z,22.80
2018-04-23T07:23:06.628Z,23.30
2018-04-23T07:25:35.239Z,23.40
2018-04-23T07:28:03.821Z,23.40
2018-04-23T07:30:32.192Z,23.50
2018-04-23T07:33:00.622Z,23.50
2018-04-23T07:35:29.061Z,23.90
2018-04-23T07:37:57.547Z,24.10
2018-04-23T07:40:26.084Z,24.30
2018-04-23T07:42:56.168Z,24.90
2018-04-23T07:45:24.554Z,24.80
2018-04-23T07:47:54.507Z,24.50
2018-04-23T07:50:23.728Z,24.40
2018-04-23T07:52:52.145Z,24.10
2018-04-23T07:55:21.513Z,23.60
2018-04-23T07:57:49.949Z,23.60
2018-04-23T08:00:19.119Z,24.40
2018-04-23T08:02:48.376Z,24.70
2018-04-23T08:05:17.221Z,24.70
2018-04-23T08:07:48.201Z,24.70
2018-04-23T08:10:16.932Z,24.70
2018-04-23T08:12:46.553Z,24.30
2018-04-23T08:15:15.812Z,24.50
2018-04-23T08:17:44.262Z,24.50
2018-04-23T08:20:13.655Z,24.50
2018-04-23T08:22:42.840Z,24.50
2018-04-23T08:25:12.112Z,24.60
2018-04-23T08:27:40.569Z,24.60
2018-04-23T08:30:09.084Z,25.00
2018-04-23T08:32:37.727Z,25.40
2018-04-23T08:35:06.176Z,25.90
2018-04-23T08:37:35.423Z,26.40
2018-04-23T08:40:04.713Z,26.20
2018-04-23T08:42:33.192Z,26.20
2018-04-23T08:45:01.710Z,25.70
2018-04-23T08:47:30.060Z,25.50
2018-04-23T08:49:58.473Z,26.00
2018-04-23T08:52:26.961Z,26.60
2018-04-23T08:54:55.499Z,27.30
2018-04-23T08:57:23.913Z,27.50
2018-04-23T08:59:52.558Z,27.70
2018-04-23T09:02:20.958Z,27.00
2018-04-23T09:04:49.389Z,27.80
2018-04-23T09:07:18.563Z,27.90
2018-04-23T09:09:50.103Z,27.40
2018-04-23T09:12:18.663Z,27.40
2018-04-23T09:14:47.956Z,26.50
2018-04-23T09:17:16.540Z,26.50
2018-04-23T09:19:45.431Z,26.50
2018-04-23T09:22:13.918Z,26.90
2018-04-23T09:24:42.488Z,27.40
2018-04-23T09:27:10.969Z,27.40
2018-04-23T09:29:39.390Z,26.70
2018-04-23T09:32:07.878Z,26.80
2018-04-23T09:34:37.338Z,26.70
2018-04-23T09:37:05.690Z,26.70
2018-04-23T09:39:34.917Z,27.90
2018-04-23T09:42:03.398Z,27.90
2018-04-23T09:44:31.906Z,28.30
2018-04-23T09:47:01.038Z,28.20
2018-04-23T09:49:29.761Z,27.70
2018-04-23T09:51:58.172Z,27.90
2018-04-23T09:54:26.542Z,26.80
2018-04-23T09:56:54.992Z,26.60
2018-04-23T09:59:23.484Z,26.80
2018-04-23T10:01:52.141Z,26.90
2018-04-23T10:04:21.462Z,27.50
2018-04-23T10:06:49.918Z,26.80
2018-04-23T10:09:18.741Z,26.10
2018-04-23T10:11:47.785Z,26.20
2018-04-23T10:14:17.334Z,25.60
2018-04-23T10:16:47.297Z,25.80
2018-04-23T10:19:17.403Z,26.40
2018-04-23T10:21:47.488Z,26.90
2018-04-23T10:24:16.831Z,27.60
2018-04-23T10:26:46.129Z,27.70
2018-04-23T10:29:18.028Z,27.80
2018-04-23T10:31:47.376Z,29.20
2018-04-23T10:34:15.727Z,29.10
2018-04-23T10:36:44.173Z,29.40
2018-04-23T10:39:13.611Z,29.40
2018-04-23T10:41:42.092Z,29.40
2018-04-23T10:44:10.567Z,28.80
2018-04-23T10:46:39.796Z,26.90
2018-04-23T10:49:09.122Z,27.10
2018-04-23T10:51:37.650Z,27.10
2018-04-23T10:54:09.599Z,28.10
2018-04-23T10:56:39.742Z,29.10
2018-04-23T10:59:08.463Z,29.10
2018-04-23T11:01:37.004Z,29.00
2018-04-23T11:04:05.484Z,29.30
2018-04-23T11:06:33.891Z,29.60
2018-04-23T11:09:02.401Z,29.80
2018-04-23T11:11:31.538Z,29.90
2018-04-23T11:14:00.021Z,29.90
2018-04-23T11:16:28.812Z,30.10
2018-04-23T11:18:57.293Z,28.50
2018-04-23T11:21:25.767Z,28.90
2018-04-23T11:23:54.779Z,28.90
2018-04-23T11:26:23.243Z,29.70
2018-04-23T11:28:51.732Z,29.70
2018-04-23T11:31:20.166Z,28.40
2018-04-23T11:33:48.893Z,28.00
2018-04-23T11:36:17.380Z,27.20
2018-04-23T11:38:45.897Z,27.90
2018-04-23T11:41:15.102Z,27.60
2018-04-23T11:43:44.310Z,28.40
2018-04-23T11:46:15.319Z,28.90
2018-04-23T11:48:44.639Z,29.60
2018-04-23T11:51:15.770Z,29.10
2018-04-23T11:53:45.240Z,29.50
2018-04-23T11:56:14.256Z,29.50
2018-04-23T11:58:42.638Z,29.70
2018-04-23T12:01:11.220Z,29.20
2018-04-23T12:03:39.703Z,28.50
2018-04-23T12:06:08.104Z,28.20
2018-04-23T12:08:37.653Z,27.40
2018-04-23T12:11:06.071Z,27.40
2018-04-23T12:13:34.619Z,27.20
2018-04-23T12:16:03.070Z,27.20
2018-04-23T12:18:32.567Z,27.80
2018-04-23T12:21:01.189Z,27.80
2018-04-23T12:23:29.565Z,28.00
2018-04-23T12:25:58.050Z,28.00
2018-04-23T12:28:26.479Z,28.10
2018-04-23T12:30:55.959Z,28.80
2018-04-23T12:33:31.762Z,28.80
2018-04-23T12:36:03.643Z,29.50
2018-04-23T12:38:35.144Z,29.50
2018-04-23T12:41:03.887Z,29.40
2018-04-23T12:43:32.408Z,29.00
2018-04-23T12:46:02.559Z,28.40
2018-04-23T12:48:31.179Z,28.00
2018-04-23T12:50:59.712Z,27.80
2018-04-23T12:53:28.952Z,28.30
2018-04-23T12:55:57.542Z,28.30
2018-04-23T12:58:26.737Z,29.20
2018-04-23T13:00:55.141Z,29.10
2018-04-23T13:03:23.796Z,28.80
2018-04-23T13:05:52.215Z,28.50
2018-04-23T13:08:22.189Z,28.20
2018-04-23T13:10:50.671Z,28.20
2018-04-23T13:13:19.051Z,27.90
2018-04-23T13:15:47.533Z,27.80
2018-04-23T13:18:15.932Z,27.80
2018-04-23T13:20:44.597Z,27.70
2018-04-23T13:23:13.120Z,27.80
2018-04-23T13:25:41.657Z,27.90
2018-04-23T13:28:10.036Z,28.10
2018-04-23T13:30:38.518Z,28.10
2018-04-23T13:33:06.903Z,27.90
2018-04-23T13:35:35.384Z,27.80
2018-04-23T13:38:03.706Z,27.60
2018-04-23T13:40:32.136Z,27.30
2018-04-23T13:43:00.542Z,27.20
2018-04-23T13:45:28.999Z,27.80
2018-04-23T13:47:57.580Z,28.40
2018-04-23T13:50:25.917Z,28.70
2018-04-23T13:52:55.264Z,29.60
2018-04-23T13:55:23.850Z,29.60
2018-04-23T13:57:52.353Z,29.90
2018-04-23T14:00:20.805Z,29.90
2018-04-23T14:02:49.959Z,29.80
2018-04-23T14:05:19.090Z,30.30
2018-04-23T14:07:47.576Z,30.20
2018-04-23T14:10:15.991Z,30.40
2018-04-23T14:12:44.561Z,30.20
2018-04-23T14:15:14.149Z,30.20
2018-04-23T14:17:42.746Z,30.00
2018-04-23T14:20:11.323Z,30.00
2018-04-23T14:22:39.739Z,29.90
2018-04-23T14:25:08.741Z,29.90
2018-04-23T14:27:37.987Z,30.00
2018-04-23T14:30:06.395Z,30.00
2018-04-23T14:32:35.474Z,30.00
2018-04-23T14:35:04.115Z,29.90
2018-04-23T14:37:32.579Z,29.90
2018-04-23T14:40:02.047Z,29.90
2018-04-23T14:42:30.628Z,29.80
2018-04-23T14:44:59.120Z,29.70
2018-04-23T14:47:29.349Z,28.90
2018-04-23T14:49:57.934Z,28.80
2018-04-23T14:52:28.117Z,28.20
2018-04-23T14:54:57.009Z,27.40
2018-04-23T14:57:25.407Z,26.70
2018-04-23T14:59:53.754Z,26.40
2018-04-23T15:02:22.194Z,26.70
2018-04-23T15:04:50.531Z,27.10
2018-04-23T15:07:19.003Z,27.60
2018-04-23T15:09:47.407Z,27.70
2018-04-23T15:12:15.858Z,28.80
2018-04-23T15:14:47.984Z,29.50
2018-04-23T15:17:16.611Z,29.80
2018-04-23T15:19:45.239Z,30.10
2018-04-23T15:22:15.214Z,30.60
2018-04-23T15:24:44.159Z,30.60
2018-04-23T15:27:13.412Z,30.70
2018-04-23T15:29:41.991Z,30.60
2018-04-23T15:32:11.288Z,30.40
2018-04-23T15:34:39.773Z,30.50
2018-04-23T15:37:08.284Z,30.40
2018-04-23T15:39:38.376Z,30.10
2018-04-23T15:42:07.805Z,30.00
2018-04-23T15:44:38.206Z,30.20
2018-04-23T15:47:06.800Z,30.20
2018-04-23T15:49:37.117Z,30.00
2018-04-23T15:52:06.349Z,29.40
2018-04-23T15:54:34.890Z,29.40
2018-04-23T15:57:03.262Z,29.00
2018-04-23T15:59:31.637Z,28.80
2018-04-23T16:02:00.065Z,28.60
2018-04-23T16:04:28.428Z,28.20
2018-04-23T16:06:56.992Z,27.70
2018-04-23T16:09:25.459Z,27.00
2018-04-23T16:11:53.855Z,26.60
2018-04-23T16:14:22.219Z,26.40
2018-04-23T16:16:50.905Z,26.30
2018-04-23T16:19:19.388Z,26.10
2018-04-23T16:21:47.865Z,26.00
2018-04-23T16:24:16.344Z,26.20
2018-04-23T16:26:44.724Z,26.60
2018-04-23T16:29:13.309Z,26.60
2018-04-23T16:31:41.640Z,26.50
2018-04-23T16:34:10.172Z,26.30
2018-04-23T16:36:38.645Z,26.30
2018-04-23T16:39:07.134Z,26.40
2018-04-23T16:41:35.607Z,26.30
2018-04-23T16:44:04.060Z,26.20
2018-04-23T16:46:32.569Z,26.00
2018-04-23T16:49:00.900Z,25.90
2018-04-23T16:51:29.329Z,26.10
2018-04-23T16:53:57.880Z,26.00
2018-04-23T16:56:26.230Z,25.70
2018-04-23T16:58:54.673Z,25.60
2018-04-23T17:01:23.250Z,25.20
2018-04-23T17:03:51.732Z,24.60
2018-04-23T17:06:20.219Z,24.60
2018-04-23T17:08:48.567Z,24.30
2018-04-23T17:11:20.158Z,23.50
2018-04-23T17:13:49.813Z,23.20
2018-04-23T17:16:18.761Z,23.10
2018-04-23T17:18:48.491Z,22.80
2018-04-23T17:21:17.817Z,22.60
2018-04-23T17:23:47.813Z,22.50
2018-04-23T17:26:16.254Z,22.50
2018-04-23T17:28:45.321Z,22.30
2018-04-23T17:31:17.349Z,21.90
2018-04-23T17:33:46.640Z,21.90
2018-04-23T17:36:15.923Z,21.80
2018-04-23T17:38:44.801Z,21.60
2018-04-23T17:41:13.196Z,21.60
2018-04-23T17:43:42.166Z,21.40
2018-04-23T17:46:12.883Z,21.30
2018-04-23T17:48:44.469Z,20.90
2018-04-23T17:51:12.977Z,20.90
2018-04-23T17:56:10.417Z,20.70
2018-04-23T17:58:38.816Z,20.70
2018-04-23T18:01:07.277Z,20.70
2018-04-23T18:03:35.754Z,20.60
2018-04-23T18:06:04.148Z,20.50
2018-04-23T18:08:32.531Z,20.40
2018-04-23T18:11:01.054Z,20.30
2018-04-23T18:13:30.381Z,20.10
2018-04-23T18:15:58.899Z,19.90
2018-04-23T18:18:27.356Z,19.70
2018-04-23T18:20:55.707Z,19.60
2018-04-23T18:23:26.947Z,19.40
2018-04-23T18:25:55.671Z,19.40
2018-04-23T18:28:24.215Z,19.30
2018-04-23T18:30:53.422Z,19.00
2018-04-23T18:33:21.863Z,19.00
2018-04-23T18:35:50.321Z,19.00
2018-04-23T18:38:18.698Z,19.00
2018-04-23T18:40:47.269Z,18.90
2018-04-23T18:43:16.673Z,18.80
2018-04-23T18:45:45.307Z,18.60
2018-04-23T18:48:14.652Z,18.50
2018-04-23T18:50:43.696Z,18.40
2018-04-23T18:53:12.240Z,18.50
2018-04-23T18:55:40.660Z,18.50
2018-04-23T18:58:09.300Z,18.40
2018-04-23T19:00:38.049Z,18.30
2018-04-23T19:03:06.613Z,18.10
2018-04-23T19:05:35.097Z,18.00
2018-04-23T19:08:04.389Z,17.80
2018-04-23T19:10:32.930Z,17.70
2018-04-23T19:13:01.236Z,17.70
2018-04-23T19:15:29.738Z,17.60
2018-04-23T19:17:59.814Z,17.40
2018-04-23T19:20:28.634Z,17.30
2018-04-23T19:22:58.548Z,17.20
2018-04-23T19:25:26.886Z,17.20
2018-04-23T19:27:55.374Z,17.10
2018-04-23T19:30:23.859Z,17.10
2018-04-23T19:32:52.397Z,17.00
2018-04-23T19:35:21.731Z,16.90
2018-04-23T19:37:50.305Z,16.90
2018-04-23T19:40:18.842Z,16.90
2018-04-23T19:42:47.383Z,16.80
2018-04-23T19:45:16.377Z,16.80
2018-04-23T19:47:44.964Z,16.70
2018-04-23T19:50:13.553Z,16.80
2018-04-23T19:52:42.026Z,16.70
2018-04-23T19:55:10.508Z,16.60
2018-04-23T19:57:38.899Z,16.60
2018-04-23T20:00:07.430Z,16.50
2018-04-23T20:02:36.498Z,16.50
2018-04-23T20:05:04.883Z,16.40
2018-04-23T20:07:33.419Z,16.40
2018-04-23T20:10:02.000Z,16.40
2018-04-23T20:12:32.909Z,16.40
2018-04-23T20:15:01.317Z,16.30
2018-04-23T20:17:29.901Z,16.20
2018-04-23T20:19:58.303Z,16.20
2018-04-23T20:22:26.670Z,16.20
2018-04-23T20:24:55.129Z,16.10
2018-04-23T20:27:23.566Z,16.10
2018-04-23T20:29:51.999Z,16.10
2018-04-23T20:32:20.415Z,16.00
2018-04-23T20:34:48.863Z,16.00
2018-04-23T20:37:18.177Z,16.10
2018-04-23T20:39:47.572Z,16.00
2018-04-23T20:42:16.143Z,16.00
2018-04-23T20:44:44.527Z,16.00
2018-04-23T20:47:12.913Z,15.90
2018-04-23T20:49:41.483Z,15.80
2018-04-23T20:52:11.180Z,15.90
2018-04-23T20:54:40.383Z,15.90
2018-04-23T20:57:08.937Z,16.00
2018-04-23T20:59:37.496Z,16.00
2018-04-23T21:02:07.171Z,16.00
2018-04-23T21:04:35.615Z,15.90
2018-04-23T21:07:04.068Z,16.00
2018-04-23T21:09:35.838Z,15.90
2018-04-23T21:12:05.703Z,15.90
2018-04-23T21:14:34.438Z,15.90
2018-04-23T21:17:03.889Z,15.90
2018-04-23T21:19:32.529Z,15.90
2018-04-23T21:22:01.057Z,15.90
2018-04-23T21:24:29.971Z,15.90
2018-04-23T21:26:58.532Z,15.90
2018-04-23T21:29:27.012Z,15.80
2018-04-23T21:31:56.217Z,15.80
2018-04-23T21:34:24.640Z,15.80
2018-04-23T21:36:53.184Z,15.80
2018-04-23T21:39:21.588Z,15.90
2018-04-23T21:41:51.261Z,15.90
2018-04-23T21:44:20.249Z,15.90
2018-04-23T21:46:48.643Z,15.80
2018-04-23T21:49:20.635Z,15.70
2018-04-23T21:51:50.405Z,15.60
2018-04-23T21:54:20.297Z,15.60
2018-04-23T21:56:48.809Z,15.60
2018-04-23T21:59:17.280Z,15.60
2018-04-23T22:01:45.770Z,15.60
2018-04-23T22:04:14.146Z,15.70
2018-04-23T22:06:42.634Z,15.70
2018-04-23T22:09:11.050Z,15.60
2018-04-23T22:11:39.563Z,15.60
2018-04-23T22:14:08.067Z,15.60
2018-04-23T22:16:36.661Z,15.60
2018-04-23T22:19:05.202Z,15.60
2018-04-23T22:21:33.647Z,15.50
2018-04-23T22:24:01.944Z,15.50
2018-04-23T22:26:30.518Z,15.50
2018-04-23T22:28:59.051Z,15.50
2018-04-23T22:31:28.253Z,15.50
2018-04-23T22:33:56.638Z,15.40
2018-04-23T22:36:25.021Z,15.50
2018-04-23T22:38:53.485Z,15.40
2018-04-23T22:41:21.793Z,15.30
2018-04-23T22:43:50.248Z,15.30
2018-04-23T22:46:18.722Z,15.40
2018-04-23T22:48:47.205Z,15.40
2018-04-23T22:51:15.562Z,15.30
2018-04-23T22:53:44.172Z,15.30
2018-04-23T22:56:13.171Z,15.50
2018-04-23T22:58:41.721Z,15.40
2018-04-23T23:01:11.033Z,15.40
2018-04-23T23:03:39.813Z,15.40
2018-04-23T23:06:08.126Z,15.40
2018-04-23T23:08:36.591Z,15.30
2018-04-23T23:11:04.997Z,15.20
2018-04-23T23:13:33.285Z,15.20
2018-04-23T23:16:01.731Z,15.20
2018-04-23T23:18:30.050Z,15.20
2018-04-23T23:20:58.396Z,15.10
2018-04-23T23:23:26.765Z,15.00
2018-04-23T23:25:55.501Z,15.00
2018-04-23T23:28:24.690Z,14.90
2018-04-23T23:30:54.245Z,15.00
2018-04-23T23:33:22.650Z,15.00
2018-04-23T23:35:51.045Z,15.00
2018-04-23T23:38:19.488Z,15.00
2018-04-23T23:40:47.816Z,15.10
2018-04-23T23:43:16.349Z,15.20
2018-04-23T23:45:44.833Z,15.30
2018-04-23T23:48:13.265Z,15.40
2018-04-23T23:50:42.611Z,15.40
2018-04-23T23:53:11.189Z,15.30
2018-04-23T23:55:39.677Z,15.40
2018-04-23T23:58:08.051Z,15.40
